sensor_id;sensor_type;location;lat;lon;timestamp;noise_LAeq;noise_LA_min;noise_LA_max;noise_LA01;noise_LA95
46749;Laerm;33775;47.992;11.864;2023-04-05T00:01:54;36.43;26.91;39.58;;
46749;Laerm;33775;47.992;11.864;2023-04-05T00:04:20;36.43;30.89;39.46;;
46749;Laerm;33775;47.992;11.864;2023-04-05T00:06:45;36.43;30.89;39.34;;
46749;Laerm;33775;47.992;11.864;2023-04-05T00:09:11;36.44;29.92;39.58;;
46749;Laerm;33775;47.992;11.864;2023-04-05T00:11:37;36.40;30.89;40.13;;
46749;Laerm;33775;47.992;11.864;2023-04-05T00:14:02;36.43;28.67;39.58;;
46749;Laerm;33775;47.992;11.864;2023-04-05T00:16:28;36.42;30.89;39.58;;
46749;Laerm;33775;47.992;11.864;2023-04-05T00:18:55;36.39;28.67;39.34;;
46749;Laerm;33775;47.992;11.864;2023-04-05T00:21:20;36.39;29.92;39.46;;
46749;Laerm;33775;47.992;11.864;2023-04-05T00:23:46;36.41;30.89;39.23;;
46749;Laerm;33775;47.992;11.864;2023-04-05T00:26:12;36.43;29.92;39.58;;
46749;Laerm;33775;47.992;11.864;2023-04-05T00:28:38;36.44;30.89;39.70;;
46749;Laerm;33775;47.992;11.864;2023-04-05T00:31:03;36.44;29.92;39.46;;
46749;Laerm;33775;47.992;11.864;2023-04-05T00:33:29;36.44;28.67;39.46;;
46749;Laerm;33775;47.992;11.864;2023-04-05T00:35:54;36.45;30.89;40.13;;
46749;Laerm;33775;47.992;11.864;2023-04-05T00:38:19;36.42;30.89;39.34;;
46749;Laerm;33775;47.992;11.864;2023-04-05T00:40:45;36.39;28.67;39.46;;
46749;Laerm;33775;47.992;11.864;2023-04-05T00:43:10;36.39;28.67;39.34;;
46749;Laerm;33775;47.992;11.864;2023-04-05T00:45:35;36.40;29.92;39.70;;
46749;Laerm;33775;47.992;11.864;2023-04-05T00:48:00;36.33;30.89;39.34;;
46749;Laerm;33775;47.992;11.864;2023-04-05T00:50:26;36.35;28.67;39.81;;
46749;Laerm;33775;47.992;11.864;2023-04-05T00:52:55;36.35;28.67;39.35;;
46749;Laerm;33775;47.992;11.864;2023-04-05T00:55:21;36.33;29.92;39.46;;
46749;Laerm;33775;47.992;11.864;2023-04-05T00:57:46;36.33;26.56;39.58;;
46749;Laerm;33775;47.992;11.864;2023-04-05T01:00:14;36.34;28.67;39.46;;
46749;Laerm;33775;47.992;11.864;2023-04-05T01:02:51;36.36;30.89;39.34;;
46749;Laerm;33775;47.992;11.864;2023-04-05T01:08:11;36.29;29.92;39.58;;
46749;Laerm;33775;47.992;11.864;2023-04-05T01:10:38;36.29;29.92;39.34;;
46749;Laerm;33775;47.992;11.864;2023-04-05T01:13:06;36.28;30.89;39.70;;
46749;Laerm;33775;47.992;11.864;2023-04-05T01:15:32;36.26;29.92;39.23;;
46749;Laerm;33775;47.992;11.864;2023-04-05T01:17:58;36.25;28.67;39.34;;
46749;Laerm;33775;47.992;11.864;2023-04-05T01:20:25;36.24;30.89;39.34;;
46749;Laerm;33775;47.992;11.864;2023-04-05T01:28:15;36.27;29.92;39.58;;
46749;Laerm;33775;47.992;11.864;2023-04-05T01:30:43;36.26;28.67;39.34;;
46749;Laerm;33775;47.992;11.864;2023-04-05T01:33:24;36.23;28.67;39.70;;
46749;Laerm;33775;47.992;11.864;2023-04-05T01:36:03;36.27;30.89;39.58;;
46749;Laerm;33775;47.992;11.864;2023-04-05T01:38:29;36.29;30.89;39.34;;
46749;Laerm;33775;47.992;11.864;2023-04-05T01:40:55;36.28;29.92;39.08;;
46749;Laerm;33775;47.992;11.864;2023-04-05T01:43:21;36.30;30.89;39.58;;
46749;Laerm;33775;47.992;11.864;2023-04-05T01:45:46;36.32;29.92;39.34;;
46749;Laerm;33775;47.992;11.864;2023-04-05T01:48:12;36.26;29.92;39.34;;
46749;Laerm;33775;47.992;11.864;2023-04-05T01:50:37;36.21;28.67;39.21;;
46749;Laerm;33775;47.992;11.864;2023-04-05T01:53:03;36.20;26.91;39.08;;
46749;Laerm;33775;47.992;11.864;2023-04-05T01:55:28;36.21;26.91;39.23;;
46749;Laerm;33775;47.992;11.864;2023-04-05T01:57:53;36.16;26.91;39.34;;
46749;Laerm;33775;47.992;11.864;2023-04-05T02:00:20;36.10;26.91;39.70;;
46749;Laerm;33775;47.992;11.864;2023-04-05T02:02:45;36.09;28.67;39.08;;
46749;Laerm;33775;47.992;11.864;2023-04-05T02:05:10;36.11;23.90;39.46;;
46749;Laerm;33775;47.992;11.864;2023-04-05T02:07:36;36.02;26.91;39.08;;
46749;Laerm;33775;47.992;11.864;2023-04-05T02:10:01;36.02;29.92;38.81;;
46749;Laerm;33775;47.992;11.864;2023-04-05T02:12:26;36.02;29.92;39.08;;
46749;Laerm;33775;47.992;11.864;2023-04-05T02:14:51;36.00;28.67;39.58;;
46749;Laerm;33775;47.992;11.864;2023-04-05T02:17:17;36.02;28.67;39.21;;
46749;Laerm;33775;47.992;11.864;2023-04-05T02:19:42;36.02;23.55;39.58;;
46749;Laerm;33775;47.992;11.864;2023-04-05T02:22:11;36.03;28.67;39.08;;
46749;Laerm;33775;47.992;11.864;2023-04-05T02:24:36;35.99;28.67;39.58;;
46749;Laerm;33775;47.992;11.864;2023-04-05T02:27:01;36.04;28.67;38.81;;
46749;Laerm;33775;47.992;11.864;2023-04-05T02:29:26;36.07;28.67;39.34;;
46749;Laerm;33775;47.992;11.864;2023-04-05T02:31:51;36.03;29.92;39.46;;
46749;Laerm;33775;47.992;11.864;2023-04-05T02:34:17;35.99;28.67;39.21;;
46749;Laerm;33775;47.992;11.864;2023-04-05T02:36:42;36.02;26.91;39.46;;
46749;Laerm;33775;47.992;11.864;2023-04-05T02:39:08;35.98;26.91;39.34;;
46749;Laerm;33775;47.992;11.864;2023-04-05T02:41:33;35.98;28.67;39.34;;
46749;Laerm;33775;47.992;11.864;2023-04-05T02:43:59;35.99;28.67;39.58;;
46749;Laerm;33775;47.992;11.864;2023-04-05T02:46:25;35.97;28.67;39.21;;
46749;Laerm;33775;47.992;11.864;2023-04-05T02:48:50;36.05;29.92;39.34;;
46749;Laerm;33775;47.992;11.864;2023-04-05T02:51:15;36.03;23.90;39.58;;
46749;Laerm;33775;47.992;11.864;2023-04-05T02:53:40;36.03;28.67;39.34;;
46749;Laerm;33775;47.992;11.864;2023-04-05T02:56:06;36.08;23.90;39.08;;
46749;Laerm;33775;47.992;11.864;2023-04-05T02:58:31;36.02;28.67;39.34;;
46749;Laerm;33775;47.992;11.864;2023-04-05T03:00:58;36.04;26.91;39.34;;
46749;Laerm;33775;47.992;11.864;2023-04-05T03:03:25;36.07;29.57;39.46;;
46749;Laerm;33775;47.992;11.864;2023-04-05T03:05:57;36.03;28.67;39.08;;
46749;Laerm;33775;47.992;11.864;2023-04-05T03:08:23;36.04;26.91;39.34;;
46749;Laerm;33775;47.992;11.864;2023-04-05T03:10:51;36.02;26.91;39.21;;
46749;Laerm;33775;47.992;11.864;2023-04-05T03:13:16;36.01;28.67;39.08;;
46749;Laerm;33775;47.992;11.864;2023-04-05T03:15:41;36.07;29.92;39.34;;
46749;Laerm;33775;47.992;11.864;2023-04-05T03:18:07;36.04;26.91;39.70;;
46749;Laerm;33775;47.992;11.864;2023-04-05T03:20:33;36.01;28.67;38.95;;
46749;Laerm;33775;47.992;11.864;2023-04-05T03:23:00;36.03;26.91;38.95;;
46749;Laerm;33775;47.992;11.864;2023-04-05T03:25:26;36.02;26.91;38.95;;
46749;Laerm;33775;47.992;11.864;2023-04-05T03:27:51;36.03;29.92;39.81;;
46749;Laerm;33775;47.992;11.864;2023-04-05T03:30:16;36.03;29.92;38.95;;
46749;Laerm;33775;47.992;11.864;2023-04-05T03:32:42;36.03;26.91;39.08;;
46749;Laerm;33775;47.992;11.864;2023-04-05T03:35:07;36.05;28.67;39.58;;
46749;Laerm;33775;47.992;11.864;2023-04-05T03:37:32;36.10;26.91;39.21;;
46749;Laerm;33775;47.992;11.864;2023-04-05T03:39:57;36.08;26.91;39.08;;
46749;Laerm;33775;47.992;11.864;2023-04-05T03:42:23;35.99;26.91;39.46;;
46749;Laerm;33775;47.992;11.864;2023-04-05T03:44:50;35.98;26.91;39.46;;
46749;Laerm;33775;47.992;11.864;2023-04-05T03:47:16;35.96;26.91;38.95;;
46749;Laerm;33775;47.992;11.864;2023-04-05T03:49:41;35.96;28.67;39.58;;
46749;Laerm;33775;47.992;11.864;2023-04-05T03:52:06;35.91;28.67;39.21;;
46749;Laerm;33775;47.992;11.864;2023-04-05T03:54:32;35.93;26.91;39.34;;
46749;Laerm;33775;47.992;11.864;2023-04-05T03:56:57;35.99;23.55;39.08;;
46749;Laerm;33775;47.992;11.864;2023-04-05T03:59:23;36.01;28.67;39.08;;
46749;Laerm;33775;47.992;11.864;2023-04-05T04:01:48;35.98;28.67;39.34;;
46749;Laerm;33775;47.992;11.864;2023-04-05T04:04:13;35.93;26.91;39.08;;
46749;Laerm;33775;47.992;11.864;2023-04-05T04:06:38;35.94;29.92;39.21;;
46749;Laerm;33775;47.992;11.864;2023-04-05T04:09:03;35.91;29.92;39.21;;
46749;Laerm;33775;47.992;11.864;2023-04-05T04:11:29;35.96;28.67;39.08;;
46749;Laerm;33775;47.992;11.864;2023-04-05T04:13:54;35.95;26.91;39.92;;
46749;Laerm;33775;47.992;11.864;2023-04-05T04:16:20;35.95;26.91;39.08;;
46749;Laerm;33775;47.992;11.864;2023-04-05T04:18:45;35.96;26.91;39.21;;
46749;Laerm;33775;47.992;11.864;2023-04-05T04:21:10;35.96;28.67;39.21;;
46749;Laerm;33775;47.992;11.864;2023-04-05T04:23:36;35.94;28.67;39.34;;
46749;Laerm;33775;47.992;11.864;2023-04-05T04:26:04;35.90;26.91;39.46;;
46749;Laerm;33775;47.992;11.864;2023-04-05T04:28:30;35.92;26.91;39.21;;
46749;Laerm;33775;47.992;11.864;2023-04-05T04:30:58;35.88;26.91;39.46;;
46749;Laerm;33775;47.992;11.864;2023-04-05T04:33:29;35.91;23.90;38.95;;
46749;Laerm;33775;47.992;11.864;2023-04-05T04:35:54;35.89;26.91;39.08;;
46749;Laerm;33775;47.992;11.864;2023-04-05T04:38:19;35.95;26.91;39.34;;
46749;Laerm;33775;47.992;11.864;2023-04-05T04:40:45;35.98;28.67;39.08;;
46749;Laerm;33775;47.992;11.864;2023-04-05T04:43:11;35.91;26.91;39.34;;
46749;Laerm;33775;47.992;11.864;2023-04-05T04:45:46;35.90;28.67;39.46;;
46749;Laerm;33775;47.992;11.864;2023-04-05T04:48:12;35.90;28.67;39.08;;
46749;Laerm;33775;47.992;11.864;2023-04-05T04:50:41;35.93;26.91;39.21;;
46749;Laerm;33775;47.992;11.864;2023-04-05T04:53:07;35.92;26.91;38.95;;
46749;Laerm;33775;47.992;11.864;2023-04-05T04:55:32;35.95;23.90;38.95;;
46749;Laerm;33775;47.992;11.864;2023-04-05T04:57:57;35.95;23.90;39.34;;
46749;Laerm;33775;47.992;11.864;2023-04-05T05:00:23;35.99;23.90;39.34;;
46749;Laerm;33775;47.992;11.864;2023-04-05T05:02:49;35.98;28.67;39.21;;
46749;Laerm;33775;47.992;11.864;2023-04-05T05:05:14;35.98;26.91;39.34;;
46749;Laerm;33775;47.992;11.864;2023-04-05T05:07:40;35.96;28.67;39.08;;
46749;Laerm;33775;47.992;11.864;2023-04-05T05:10:08;35.99;28.67;39.34;;
46749;Laerm;33775;47.992;11.864;2023-04-05T05:12:34;35.99;26.91;39.34;;
46749;Laerm;33775;47.992;11.864;2023-04-05T05:14:59;35.94;23.90;38.95;;
46749;Laerm;33775;47.992;11.864;2023-04-05T05:17:24;35.97;28.67;39.34;;
46749;Laerm;33775;47.992;11.864;2023-04-05T05:19:50;35.98;28.67;39.21;;
46749;Laerm;33775;47.992;11.864;2023-04-05T05:22:15;35.97;26.91;39.57;;
46749;Laerm;33775;47.992;11.864;2023-04-05T05:24:41;36.00;28.67;39.34;;
46749;Laerm;33775;47.992;11.864;2023-04-05T05:27:06;36.01;26.91;39.34;;
46749;Laerm;33775;47.992;11.864;2023-04-05T05:29:31;36.07;26.91;39.46;;
46749;Laerm;33775;47.992;11.864;2023-04-05T05:31:57;36.02;28.67;39.34;;
46749;Laerm;33775;47.992;11.864;2023-04-05T05:34:22;36.06;26.56;39.21;;
46749;Laerm;33775;47.992;11.864;2023-04-05T05:36:48;36.10;29.92;39.81;;
46749;Laerm;33775;47.992;11.864;2023-04-05T05:39:13;36.15;29.57;39.34;;
46749;Laerm;33775;47.992;11.864;2023-04-05T05:41:38;36.16;28.67;39.46;;
46749;Laerm;33775;47.992;11.864;2023-04-05T05:44:04;36.21;28.67;39.08;;
46749;Laerm;33775;47.992;11.864;2023-04-05T05:46:30;36.20;30.54;39.34;;
46749;Laerm;33775;47.992;11.864;2023-04-05T05:48:55;36.26;28.67;39.70;;
46749;Laerm;33775;47.992;11.864;2023-04-05T05:51:20;36.25;28.67;39.58;;
46749;Laerm;33775;47.992;11.864;2023-04-05T05:53:46;36.25;30.89;39.21;;
46749;Laerm;33775;47.992;11.864;2023-04-05T05:56:12;36.32;28.67;39.58;;
46749;Laerm;33775;47.992;11.864;2023-04-05T05:58:37;36.33;30.89;39.58;;
46749;Laerm;33775;47.992;11.864;2023-04-05T06:01:03;36.39;30.89;39.34;;
46749;Laerm;33775;47.992;11.864;2023-04-05T06:03:29;36.42;29.92;39.46;;
46749;Laerm;33775;47.992;11.864;2023-04-05T06:05:55;36.41;30.89;39.46;;
46749;Laerm;33775;47.992;11.864;2023-04-05T06:08:21;36.41;29.92;39.34;;
46749;Laerm;33775;47.992;11.864;2023-04-05T06:10:47;36.40;28.67;39.58;;
46749;Laerm;33775;47.992;11.864;2023-04-05T06:13:12;36.45;29.92;39.34;;
46749;Laerm;33775;47.992;11.864;2023-04-05T06:15:37;36.50;30.89;39.58;;
46749;Laerm;33775;47.992;11.864;2023-04-05T06:18:03;36.47;28.67;39.58;;
46749;Laerm;33775;47.992;11.864;2023-04-05T06:20:28;36.47;28.67;39.58;;
46749;Laerm;33775;47.992;11.864;2023-04-05T06:22:53;36.48;29.92;39.70;;
46749;Laerm;33775;47.992;11.864;2023-04-05T06:25:18;36.48;30.89;39.92;;
46749;Laerm;33775;47.992;11.864;2023-04-05T06:27:43;36.49;26.91;39.70;;
46749;Laerm;33775;47.992;11.864;2023-04-05T06:30:09;36.51;29.92;39.58;;
46749;Laerm;33775;47.992;11.864;2023-04-05T06:32:34;36.53;28.67;40.33;;
46749;Laerm;33775;47.992;11.864;2023-04-05T06:35:00;36.57;29.92;39.70;;
46749;Laerm;33775;47.992;11.864;2023-04-05T06:37:27;36.56;26.91;39.58;;
46749;Laerm;33775;47.992;11.864;2023-04-05T06:39:53;36.57;28.67;39.70;;
46749;Laerm;33775;47.992;11.864;2023-04-05T06:42:18;36.52;30.89;39.81;;
46749;Laerm;33775;47.992;11.864;2023-04-05T06:44:43;36.51;29.92;39.81;;
46749;Laerm;33775;47.992;11.864;2023-04-05T06:47:08;36.49;29.92;40.23;;
46749;Laerm;33775;47.992;11.864;2023-04-05T06:49:34;36.49;29.92;39.81;;
46749;Laerm;33775;47.992;11.864;2023-04-05T06:51:59;36.47;23.90;39.81;;
46749;Laerm;33775;47.992;11.864;2023-04-05T06:54:25;36.47;28.67;39.46;;
46749;Laerm;33775;47.992;11.864;2023-04-05T06:56:50;36.45;29.92;39.81;;
46749;Laerm;33775;47.992;11.864;2023-04-05T06:59:16;36.44;29.92;39.46;;
46749;Laerm;33775;47.992;11.864;2023-04-05T07:01:41;36.47;29.92;39.92;;
46749;Laerm;33775;47.992;11.864;2023-04-05T07:04:06;36.51;30.89;39.78;;
46749;Laerm;33775;47.992;11.864;2023-04-05T07:06:31;36.52;28.67;39.34;;
46749;Laerm;33775;47.992;11.864;2023-04-05T07:08:59;36.62;28.67;39.34;;
46749;Laerm;33775;47.992;11.864;2023-04-05T07:11:24;36.67;31.68;39.46;;
46749;Laerm;33775;47.992;11.864;2023-04-05T07:13:49;36.73;31.68;39.92;;
46749;Laerm;33775;47.992;11.864;2023-04-05T07:16:14;36.79;30.89;40.18;;
46749;Laerm;33775;47.992;11.864;2023-04-05T07:18:41;36.83;31.68;39.58;;
46749;Laerm;33775;47.992;11.864;2023-04-05T07:21:07;36.90;26.91;39.92;;
46749;Laerm;33775;47.992;11.864;2023-04-05T07:23:32;36.93;32.35;40.03;;
46749;Laerm;33775;47.992;11.864;2023-04-05T07:26:01;36.93;30.89;39.70;;
46749;Laerm;33775;47.992;11.864;2023-04-05T07:28:30;36.92;32.35;39.81;;
46749;Laerm;33775;47.992;11.864;2023-04-05T07:30:55;36.92;31.68;39.81;;
46749;Laerm;33775;47.992;11.864;2023-04-05T07:33:21;36.87;31.68;40.03;;
46749;Laerm;33775;47.992;11.864;2023-04-05T07:35:50;36.85;30.89;39.70;;
46749;Laerm;33775;47.992;11.864;2023-04-05T07:38:16;36.84;29.92;39.58;;
46749;Laerm;33775;47.992;11.864;2023-04-05T07:40:41;36.92;32.35;39.70;;
46749;Laerm;33775;47.992;11.864;2023-04-05T07:43:06;36.97;32.35;40.03;;
46749;Laerm;33775;47.992;11.864;2023-04-05T07:45:32;37.02;32.35;40.03;;
46749;Laerm;33775;47.992;11.864;2023-04-05T07:47:57;37.07;31.68;39.92;;
46749;Laerm;33775;47.992;11.864;2023-04-05T07:50:23;37.06;32.35;39.81;;
46749;Laerm;33775;47.992;11.864;2023-04-05T07:52:48;37.09;28.67;39.70;;
46749;Laerm;33775;47.992;11.864;2023-04-05T07:55:13;37.11;32.35;40.53;;
46749;Laerm;33775;47.992;11.864;2023-04-05T07:57:38;37.12;32.93;39.81;;
46749;Laerm;33775;47.992;11.864;2023-04-05T08:00:04;37.19;32.93;40.13;;
46749;Laerm;33775;47.992;11.864;2023-04-05T08:02:34;37.17;32.93;39.92;;
46749;Laerm;33775;47.992;11.864;2023-04-05T08:05:00;37.15;32.35;39.81;;
46749;Laerm;33775;47.992;11.864;2023-04-05T08:07:25;37.19;32.93;39.92;;
46749;Laerm;33775;47.992;11.864;2023-04-05T08:09:50;37.20;33.44;40.03;;
46749;Laerm;33775;47.992;11.864;2023-04-05T08:12:15;37.22;32.35;40.33;;
46749;Laerm;33775;47.992;11.864;2023-04-05T08:14:41;37.23;32.35;39.92;;
46749;Laerm;33775;47.992;11.864;2023-04-05T08:17:06;37.21;30.89;40.89;;
46749;Laerm;33775;47.992;11.864;2023-04-05T08:19:31;37.24;28.67;40.03;;
46749;Laerm;33775;47.992;11.864;2023-04-05T08:21:56;37.25;32.35;40.33;;
46749;Laerm;33775;47.992;11.864;2023-04-05T08:24:21;37.27;30.89;40.33;;
46749;Laerm;33775;47.992;11.864;2023-04-05T08:26:47;37.27;32.93;40.43;;
46749;Laerm;33775;47.992;11.864;2023-04-05T08:29:12;37.27;33.44;40.43;;
46749;Laerm;33775;47.992;11.864;2023-04-05T08:31:38;37.27;31.68;40.13;;
46749;Laerm;33775;47.992;11.864;2023-04-05T08:34:03;37.29;31.68;40.13;;
46749;Laerm;33775;47.992;11.864;2023-04-05T08:36:29;37.27;33.44;40.13;;
46749;Laerm;33775;47.992;11.864;2023-04-05T08:38:54;37.28;32.93;43.81;;
46749;Laerm;33775;47.992;11.864;2023-04-05T08:41:22;37.29;32.35;40.13;;
46749;Laerm;33775;47.992;11.864;2023-04-05T08:43:57;37.29;32.93;39.92;;
46749;Laerm;33775;47.992;11.864;2023-04-05T08:46:26;37.30;32.58;44.58;;
46749;Laerm;33775;47.992;11.864;2023-04-05T08:48:51;37.26;32.35;40.03;;
46749;Laerm;33775;47.992;11.864;2023-04-05T08:51:17;37.29;31.68;39.92;;
46749;Laerm;33775;47.992;11.864;2023-04-05T08:53:43;37.28;32.35;40.53;;
46749;Laerm;33775;47.992;11.864;2023-04-05T08:56:08;37.30;32.93;40.33;;
46749;Laerm;33775;47.992;11.864;2023-04-05T08:58:35;37.26;33.44;40.03;;
46749;Laerm;33775;47.992;11.864;2023-04-05T09:01:02;37.24;32.35;44.11;;
46749;Laerm;33775;47.992;11.864;2023-04-05T09:03:30;37.29;32.93;39.92;;
46749;Laerm;33775;47.992;11.864;2023-04-05T09:05:57;37.32;32.93;40.43;;
46749;Laerm;33775;47.992;11.864;2023-04-05T09:08:23;37.26;32.35;40.23;;
46749;Laerm;33775;47.992;11.864;2023-04-05T09:10:49;37.23;32.35;40.03;;
46749;Laerm;33775;47.992;11.864;2023-04-05T09:13:15;37.20;32.35;40.23;;
46749;Laerm;33775;47.992;11.864;2023-04-05T09:15:40;37.21;32.35;40.33;;
46749;Laerm;33775;47.992;11.864;2023-04-05T09:18:06;37.15;31.68;40.03;;
46749;Laerm;33775;47.992;11.864;2023-04-05T09:20:31;37.24;30.89;40.13;;
46749;Laerm;33775;47.992;11.864;2023-04-05T09:22:56;37.17;31.68;40.03;;
46749;Laerm;33775;47.992;11.864;2023-04-05T09:27:56;37.27;31.68;44.19;;
46749;Laerm;33775;47.992;11.864;2023-04-05T09:30:22;37.24;32.35;40.13;;
46749;Laerm;33775;47.992;11.864;2023-04-05T09:32:47;37.24;30.89;40.03;;
46749;Laerm;33775;47.992;11.864;2023-04-05T09:35:18;37.15;32.35;40.03;;
46749;Laerm;33775;47.992;11.864;2023-04-05T09:37:50;37.18;32.35;40.13;;
46749;Laerm;33775;47.992;11.864;2023-04-05T09:40:17;37.17;32.35;40.03;;
46749;Laerm;33775;47.992;11.864;2023-04-05T09:42:43;37.16;32.35;40.03;;
46749;Laerm;33775;47.992;11.864;2023-04-05T09:45:11;37.18;32.00;39.81;;
46749;Laerm;33775;47.992;11.864;2023-04-05T09:47:36;37.11;32.93;40.03;;
46749;Laerm;33775;47.992;11.864;2023-04-05T09:50:23;37.07;30.89;40.23;;
46749;Laerm;33775;47.992;11.864;2023-04-05T09:52:47;37.05;31.68;40.43;;
46749;Laerm;33775;47.992;11.864;2023-04-05T09:55:13;37.04;32.35;40.13;;
46749;Laerm;33775;47.992;11.864;2023-04-05T09:57:39;37.05;31.68;40.13;;
46749;Laerm;33775;47.992;11.864;2023-04-05T10:00:05;37.05;31.68;40.43;;
46749;Laerm;33775;47.992;11.864;2023-04-05T10:02:35;37.06;31.68;39.70;;
46749;Laerm;33775;47.992;11.864;2023-04-05T10:07:30;37.09;31.68;40.23;;
46749;Laerm;33775;47.992;11.864;2023-04-05T10:09:56;37.09;31.68;40.13;;
46749;Laerm;33775;47.992;11.864;2023-04-05T10:12:25;37.09;32.35;40.13;;
46749;Laerm;33775;47.992;11.864;2023-04-05T10:14:56;37.07;31.68;39.92;;
46749;Laerm;33775;47.992;11.864;2023-04-05T10:17:31;37.08;30.89;40.13;;
46749;Laerm;33775;47.992;11.864;2023-04-05T10:22:29;37.15;29.92;39.92;;
46749;Laerm;33775;47.992;11.864;2023-04-05T10:24:58;37.28;32.35;40.13;;
46749;Laerm;33775;47.992;11.864;2023-04-05T10:27:32;37.30;32.35;40.23;;
46749;Laerm;33775;47.992;11.864;2023-04-05T10:30:05;37.37;28.67;49.63;;
46749;Laerm;33775;47.992;11.864;2023-04-05T10:35:15;37.32;31.68;40.13;;
46749;Laerm;33775;47.992;11.864;2023-04-05T10:40:07;37.30;32.93;40.23;;
46749;Laerm;33775;47.992;11.864;2023-04-05T10:42:41;37.29;30.89;40.03;;
46749;Laerm;33775;47.992;11.864;2023-04-05T10:45:08;37.29;31.68;46.13;;
46749;Laerm;33775;47.992;11.864;2023-04-05T10:47:37;37.31;32.35;40.13;;
46749;Laerm;33775;47.992;11.864;2023-04-05T10:50:06;37.32;30.89;40.53;;
46749;Laerm;33775;47.992;11.864;2023-04-05T10:52:33;37.33;30.89;40.13;;
46749;Laerm;33775;47.992;11.864;2023-04-05T10:54:58;37.31;32.93;40.13;;
46749;Laerm;33775;47.992;11.864;2023-04-05T10:57:24;37.32;28.67;52.73;;
46749;Laerm;33775;47.992;11.864;2023-04-05T10:59:49;37.29;32.35;40.03;;
46749;Laerm;33775;47.992;11.864;2023-04-05T11:02:15;37.35;32.58;40.23;;
46749;Laerm;33775;47.992;11.864;2023-04-05T11:04:42;37.27;32.35;40.53;;
46749;Laerm;33775;47.992;11.864;2023-04-05T11:07:14;37.34;32.35;40.23;;
46749;Laerm;33775;47.992;11.864;2023-04-05T11:09:54;37.40;32.58;40.43;;
46749;Laerm;33775;47.992;11.864;2023-04-05T11:12:20;37.38;31.68;47.44;;
46749;Laerm;33775;47.992;11.864;2023-04-05T11:18:00;37.27;32.35;40.13;;
46749;Laerm;33775;47.992;11.864;2023-04-05T11:20:25;37.22;32.35;40.13;;
46749;Laerm;33775;47.992;11.864;2023-04-05T11:22:52;37.32;32.35;40.03;;
46749;Laerm;33775;47.992;11.864;2023-04-05T11:25:21;37.25;32.35;40.13;;
46749;Laerm;33775;47.992;11.864;2023-04-05T11:27:46;37.25;32.35;39.92;;
46749;Laerm;33775;47.992;11.864;2023-04-05T11:30:44;37.28;32.35;40.13;;
46749;Laerm;33775;47.992;11.864;2023-04-05T11:33:09;37.46;30.89;53.45;;
46749;Laerm;33775;47.992;11.864;2023-04-05T11:35:34;37.32;30.89;40.43;;
46749;Laerm;33775;47.992;11.864;2023-04-05T11:40:29;37.04;31.68;40.13;;
46749;Laerm;33775;47.992;11.864;2023-04-05T11:43:02;37.10;32.35;40.03;;
46749;Laerm;33775;47.992;11.864;2023-04-05T11:45:29;37.01;30.89;39.81;;
46749;Laerm;33775;47.992;11.864;2023-04-05T11:47:56;36.97;30.89;39.92;;
46749;Laerm;33775;47.992;11.864;2023-04-05T11:50:21;36.99;30.89;39.81;;
46749;Laerm;33775;47.992;11.864;2023-04-05T11:53:05;37.11;29.92;40.13;;
46749;Laerm;33775;47.992;11.864;2023-04-05T11:55:31;37.20;30.89;40.03;;
46749;Laerm;33775;47.992;11.864;2023-04-05T11:57:56;37.09;31.68;40.03;;
46749;Laerm;33775;47.992;11.864;2023-04-05T12:00:21;37.18;31.68;40.33;;
46749;Laerm;33775;47.992;11.864;2023-04-05T12:02:46;37.13;30.89;39.81;;
46749;Laerm;33775;47.992;11.864;2023-04-05T12:05:12;37.08;29.92;40.23;;
46749;Laerm;33775;47.992;11.864;2023-04-05T12:07:37;37.16;31.68;40.03;;
46749;Laerm;33775;47.992;11.864;2023-04-05T12:10:08;37.02;29.92;40.23;;
46749;Laerm;33775;47.992;11.864;2023-04-05T12:12:40;36.95;30.89;39.92;;
46749;Laerm;33775;47.992;11.864;2023-04-05T12:15:06;37.01;31.68;39.92;;
46749;Laerm;33775;47.992;11.864;2023-04-05T12:17:56;36.98;29.92;40.03;;
46749;Laerm;33775;47.992;11.864;2023-04-05T12:20:21;36.94;30.89;40.23;;
46749;Laerm;33775;47.992;11.864;2023-04-05T12:22:53;36.92;32.00;39.78;;
46749;Laerm;33775;47.992;11.864;2023-04-05T12:25:18;36.94;30.89;40.03;;
46749;Laerm;33775;47.992;11.864;2023-04-05T12:27:44;36.96;31.68;40.33;;
46749;Laerm;33775;47.992;11.864;2023-04-05T12:32:41;36.98;31.33;39.81;;
46749;Laerm;33775;47.992;11.864;2023-04-05T12:35:10;37.01;30.89;40.13;;
46749;Laerm;33775;47.992;11.864;2023-04-05T12:37:37;37.04;30.89;39.81;;
46749;Laerm;33775;47.992;11.864;2023-04-05T12:40:03;37.02;31.68;40.13;;
46749;Laerm;33775;47.992;11.864;2023-04-05T12:42:32;37.02;32.35;39.70;;
46749;Laerm;33775;47.992;11.864;2023-04-05T12:45:06;37.02;28.67;40.03;;
46749;Laerm;33775;47.992;11.864;2023-04-05T12:47:34;36.98;31.68;39.99;;
46749;Laerm;33775;47.992;11.864;2023-04-05T12:50:12;37.08;29.92;39.81;;
46749;Laerm;33775;47.992;11.864;2023-04-05T12:52:38;37.10;31.68;40.23;;
46749;Laerm;33775;47.992;11.864;2023-04-05T12:55:03;37.05;31.68;40.03;;
46749;Laerm;33775;47.992;11.864;2023-04-05T12:57:31;37.12;30.89;40.13;;
46749;Laerm;33775;47.992;11.864;2023-04-05T12:59:56;37.15;31.68;40.33;;
46749;Laerm;33775;47.992;11.864;2023-04-05T13:02:21;37.14;29.92;40.23;;
46749;Laerm;33775;47.992;11.864;2023-04-05T13:04:47;37.09;30.89;40.23;;
46749;Laerm;33775;47.992;11.864;2023-04-05T13:07:12;37.12;32.35;39.92;;
46749;Laerm;33775;47.992;11.864;2023-04-05T13:09:37;37.08;30.89;40.43;;
46749;Laerm;33775;47.992;11.864;2023-04-05T13:12:02;37.19;30.89;40.43;;
46749;Laerm;33775;47.992;11.864;2023-04-05T13:14:28;37.11;28.67;40.03;;
46749;Laerm;33775;47.992;11.864;2023-04-05T13:16:53;37.09;30.89;40.03;;
46749;Laerm;33775;47.992;11.864;2023-04-05T13:19:18;37.14;28.67;40.53;;
46749;Laerm;33775;47.992;11.864;2023-04-05T13:21:44;37.15;31.68;40.13;;
46749;Laerm;33775;47.992;11.864;2023-04-05T13:24:09;37.08;30.89;39.92;;
46749;Laerm;33775;47.992;11.864;2023-04-05T13:26:35;37.13;32.35;40.03;;
46749;Laerm;33775;47.992;11.864;2023-04-05T13:29:00;37.15;32.35;40.23;;
46749;Laerm;33775;47.992;11.864;2023-04-05T13:31:26;37.09;30.89;39.92;;
46749;Laerm;33775;47.992;11.864;2023-04-05T13:33:51;37.11;26.91;40.23;;
46749;Laerm;33775;47.992;11.864;2023-04-05T13:36:17;37.03;32.35;40.13;;
46749;Laerm;33775;47.992;11.864;2023-04-05T13:38:42;37.12;31.68;40.08;;
46749;Laerm;33775;47.992;11.864;2023-04-05T13:41:08;36.96;32.35;40.33;;
46749;Laerm;33775;47.992;11.864;2023-04-05T13:43:33;36.99;29.57;39.78;;
46749;Laerm;33775;47.992;11.864;2023-04-05T13:45:58;37.00;32.35;40.03;;
46749;Laerm;33775;47.992;11.864;2023-04-05T13:48:23;36.97;30.89;40.03;;
46749;Laerm;33775;47.992;11.864;2023-04-05T13:50:48;37.02;31.68;40.13;;
46749;Laerm;33775;47.992;11.864;2023-04-05T13:53:14;37.06;31.68;39.70;;
46749;Laerm;33775;47.992;11.864;2023-04-05T13:55:39;37.10;32.35;40.23;;
46749;Laerm;33775;47.992;11.864;2023-04-05T13:58:04;37.11;29.92;40.13;;